Sanford, Texas
Current Conditions -  °F | °C
As of 1:51 AM on Friday 31 Oct 2014 (Local Time) from KBGD Reporting Station
Clear Clear  
Wind Chill: 51°   Ceiling: Unl
Heat Index: 51°   Visibility: 10mi
Dew Point: 27°   Wind: 3mph
Humidity: 39%   Direction: 270°W
Pressure: 30.38"   Gusts: NA
Location:  35.7°N, 101.53°W
Report Text: KBGD 310651Z AUTO 27003KT 10SM CLR 11/M03 A3038 RMK AO2 SLP265 T01061028
Loading
Personal Weather Stations






























Interactive Weather Map
Tropical Storm Tracking
New forecast layout! Learn more

10-Day Weather Forecast

Advertisements
Track Severe Weather on mobile